Time;durP1;ratioP1;P1;durP2;ratioP2;P2;SDS_P1;SDS_P2;PMS_P1;PMS_P2;Temp;Humidity;BMP_temperature;BMP_pressure;BME280_temperature;BME280_humidity;BME280_pressure;Samples;Min_cycle;Max_cycle;Signal;HPM_P1;HPM_P2
2022/09/25 00:02:06;;;;;;;;;4.00;4.00;;;;;;;;5100596;27;45487;-71
2022/09/25 00:04:31;;;;;;;;;7.00;5.50;;;;;;;;5099890;27;46239;-71
2022/09/25 00:06:57;;;;;;;;;4.25;4.00;;;;;;;;5099665;27;45421;-71
2022/09/25 00:09:22;;;;;;;;;5.50;3.00;;;;;;;;5099794;27;45456;-71
2022/09/25 00:11:48;;;;;;;;;4.25;2.50;;;;;;;;5099913;27;45279;-71
2022/09/25 00:14:13;;;;;;;;;5.67;5.67;;;;;;;;5099737;27;46935;-72
2022/09/25 00:16:38;;;;;;;;;8.00;3.00;;;;;;;;5099774;27;45374;-71
2022/09/25 00:21:50;;;;;;;;;4.75;4.00;;;;;;;;5099704;27;45405;-71
2022/09/25 00:24:16;;;;;;;;;7.75;5.75;;;;;;;;5099122;27;46520;-71
2022/09/25 00:26:41;;;;;;;;;4.00;4.00;;;;;;;;5099465;27;45422;-71
2022/09/25 00:29:07;;;;;;;;;3.00;1.75;;;;;;;;5100156;27;45288;-71
2022/09/25 00:31:33;;;;;;;;;5.50;4.00;;;;;;;;5099767;27;45200;-71
2022/09/25 00:34:02;;;;;;;;;6.75;5.00;;;;;;;;5099342;27;46594;-71
2022/09/25 00:36:28;;;;;;;;;7.00;4.00;;;;;;;;5099525;27;45383;-71
2022/09/25 00:38:53;;;;;;;;;3.00;3.00;;;;;;;;5099720;27;45407;-71
2022/09/25 00:41:19;;;;;;;;;9.00;6.00;;;;;;;;5098958;27;45346;-71
2022/09/25 00:43:47;;;;;;;;;6.25;4.25;;;;;;;;5099248;27;45322;-71
2022/09/25 00:46:12;;;;;;;;;10.00;3.50;;;;;;;;5099081;27;45462;-71
2022/09/25 00:48:47;;;;;;;;;2.25;2.25;;;;;;;;5099500;27;45398;-71
2022/09/25 00:51:13;;;;;;;;;5.00;3.25;;;;;;;;5098414;27;45568;-71
2022/09/25 00:53:39;;;;;;;;;4.25;3.50;;;;;;;;5098809;27;46340;-71
2022/09/25 00:56:06;;;;;;;;;4.50;4.00;;;;;;;;5099013;27;45407;-71
2022/09/25 00:58:32;;;;;;;;;7.75;3.50;;;;;;;;5098867;27;45245;-71
2022/09/25 01:00:58;;;;;;;;;5.00;4.00;;;;;;;;5099349;27;45535;-71
2022/09/25 01:03:24;;;;;;;;;5.75;3.50;;;;;;;;5099066;27;45394;-71
2022/09/25 01:05:50;;;;;;;;;4.50;3.00;;;;;;;;5098781;27;45277;-71
2022/09/25 01:08:20;;;;;;;;;4.25;2.75;;;;;;;;5099185;27;45229;-71
2022/09/25 01:10:46;;;;;;;;;4.75;3.25;;;;;;;;5098949;27;45881;-71
2022/09/25 01:13:12;;;;;;;;;4.50;3.00;;;;;;;;5105867;27;46609;-72
2022/09/25 01:15:38;;;;;;;;;4.25;3.75;;;;;;;;5119353;27;45357;-71
2022/09/25 01:18:03;;;;;;;;;4.00;3.50;;;;;;;;5119543;27;45327;-71
2022/09/25 01:20:28;;;;;;;;;6.50;6.00;;;;;;;;5119649;27;45506;-71
2022/09/25 01:22:57;;;;;;;;;4.75;3.75;;;;;;;;5119300;27;45551;-71
2022/09/25 01:25:37;;;;;;;;;4.75;4.25;;;;;;;;5118972;27;45526;-71
2022/09/25 01:28:16;;;;;;;;;4.00;4.00;;;;;;;;5119368;27;45377;-71
2022/09/25 01:30:44;;;;;;;;;4.25;4.25;;;;;;;;5113722;27;45448;-71
2022/09/25 01:33:17;;;;;;;;;4.25;4.25;;;;;;;;5098291;27;45379;-71
2022/09/25 01:35:51;;;;;;;;;7.75;7.75;;;;;;;;5098223;27;45560;-71
2022/09/25 01:38:23;;;;;;;;;3.75;3.75;;;;;;;;5098840;27;45389;-71
2022/09/25 01:40:54;;;;;;;;;5.00;3.50;;;;;;;;5098854;27;45441;-71
2022/09/25 01:43:25;;;;;;;;;8.25;4.50;;;;;;;;5096911;27;47111;-71
2022/09/25 01:45:52;;;;;;;;;4.00;4.00;;;;;;;;5097267;27;45335;-71
2022/09/25 01:48:20;;;;;;;;;6.00;3.00;;;;;;;;5098764;27;45448;-71
2022/09/25 01:50:48;;;;;;;;;4.00;4.00;;;;;;;;5098519;27;45226;-71
2022/09/25 01:53:17;;;;;;;;;6.50;3.25;;;;;;;;5098459;27;46691;-71
2022/09/25 01:55:47;;;;;;;;;4.50;3.00;;;;;;;;5098014;27;45432;-72
2022/09/25 01:58:13;;;;;;;;;4.00;2.50;;;;;;;;5097955;27;45451;-71
2022/09/25 02:00:40;;;;;;;;;5.00;3.00;;;;;;;;5098704;27;45391;-71
2022/09/25 02:03:11;;;;;;;;;5.25;2.50;;;;;;;;5096878;27;46484;-71
2022/09/25 02:05:42;;;;;;;;;4.50;3.75;;;;;;;;5098154;27;45224;-71
2022/09/25 02:08:09;;;;;;;;;6.00;4.00;;;;;;;;5098330;27;45421;-71
2022/09/25 02:10:38;;;;;;;;;7.75;3.25;;;;;;;;5097738;27;45555;-71
2022/09/25 02:13:12;;;;;;;;;4.50;4.00;;;;;;;;5097761;27;46626;-71
2022/09/25 02:15:39;;;;;;;;;6.75;5.00;;;;;;;;5097939;27;45375;-71
2022/09/25 02:20:59;;;;;;;;;5.75;5.75;;;;;;;;5098070;27;45300;-70
2022/09/25 02:23:31;;;;;;;;;5.25;3.25;;;;;;;;5097764;27;45684;-70
2022/09/25 02:25:58;;;;;;;;;4.25;4.25;;;;;;;;5097865;27;45254;-71
2022/09/25 02:28:23;;;;;;;;;6.00;3.25;;;;;;;;5097999;27;45255;-71
2022/09/25 02:30:50;;;;;;;;;5.75;4.00;;;;;;;;5097898;27;45442;-71
2022/09/25 02:33:15;;;;;;;;;8.75;4.25;;;;;;;;5097545;27;45498;-71
2022/09/25 02:35:41;;;;;;;;;7.00;5.25;;;;;;;;5096712;27;45730;-71
2022/09/25 02:38:06;;;;;;;;;7.75;6.00;;;;;;;;5097884;27;45307;-71
2022/09/25 02:40:35;;;;;;;;;5.00;5.00;;;;;;;;5097695;27;45350;-73
2022/09/25 02:43:06;;;;;;;;;5.25;5.00;;;;;;;;5097647;27;45441;-72
2022/09/25 02:45:34;;;;;;;;;8.50;6.00;;;;;;;;5097558;27;45395;-72
2022/09/25 02:48:05;;;;;;;;;9.00;7.00;;;;;;;;5097916;27;45293;-71
2022/09/25 02:50:49;;;;;;;;;8.33;6.67;;;;;;;;5097878;27;45408;-72
2022/09/25 02:53:22;;;;;;;;;5.75;5.75;;;;;;;;5097369;27;46771;-71
2022/09/25 02:55:51;;;;;;;;;7.00;4.00;;;;;;;;5097328;27;45448;-71
2022/09/25 02:58:16;;;;;;;;;5.25;5.25;;;;;;;;5097643;27;45249;-71
2022/09/25 03:00:43;;;;;;;;;5.25;5.00;;;;;;;;5097687;27;45360;-71
2022/09/25 03:03:11;;;;;;;;;8.00;6.00;;;;;;;;5097184;27;46153;-71
2022/09/25 03:05:36;;;;;;;;;7.00;6.75;;;;;;;;5097395;27;45174;-71
2022/09/25 03:10:45;;;;;;;;;5.00;5.00;;;;;;;;5097382;27;45331;-71
2022/09/25 03:13:14;;;;;;;;;5.25;5.00;;;;;;;;5096956;27;45503;-71
2022/09/25 03:15:41;;;;;;;;;10.00;5.75;;;;;;;;5100338;27;45439;-72
2022/09/25 03:18:08;;;;;;;;;8.25;6.00;;;;;;;;5101052;27;45314;-71
2022/09/25 03:20:33;;;;;;;;;8.00;6.25;;;;;;;;5100992;27;45158;-71
2022/09/25 03:22:58;;;;;;;;;7.75;5.50;;;;;;;;5101532;27;46285;-71
2022/09/25 03:25:23;;;;;;;;;8.00;6.33;;;;;;;;5121403;27;45366;-71
2022/09/25 03:27:48;;;;;;;;;8.33;6.00;;;;;;;;5121311;27;45316;-71
2022/09/25 03:30:14;;;;;;;;;6.00;5.50;;;;;;;;5121679;27;45428;-71
2022/09/25 03:32:41;;;;;;;;;9.75;5.75;;;;;;;;5121250;27;46266;-71
2022/09/25 03:35:06;;;;;;;;;6.75;6.75;;;;;;;;5121163;27;45297;-72
2022/09/25 03:37:31;;;;;;;;;9.75;7.25;;;;;;;;5121276;27;45451;-72
2022/09/25 03:39:56;;;;;;;;;9.25;7.00;;;;;;;;5121475;27;45241;-72
2022/09/25 03:42:26;;;;;;;;;8.25;6.50;;;;;;;;5105967;27;47371;-72
2022/09/25 03:44:51;;;;;;;;;9.50;7.75;;;;;;;;5100342;27;45458;-72
2022/09/25 03:47:17;;;;;;;;;8.50;7.00;;;;;;;;5100581;27;45346;-72
2022/09/25 03:49:42;;;;;;;;;5.00;5.00;;;;;;;;5100719;27;45302;-72
2022/09/25 03:52:11;;;;;;;;;8.50;7.00;;;;;;;;5100211;27;45379;-71
2022/09/25 03:54:37;;;;;;;;;6.00;6.00;;;;;;;;5100340;27;45351;-72
2022/09/25 03:57:02;;;;;;;;;9.67;6.67;;;;;;;;5100264;27;45470;-71
2022/09/25 03:59:27;;;;;;;;;7.00;6.50;;;;;;;;5099833;27;45384;-71
2022/09/25 04:01:52;;;;;;;;;9.50;7.75;;;;;;;;5100179;27;46460;-72
2022/09/25 04:04:17;;;;;;;;;5.25;3.00;;;;;;;;5100195;27;45356;-73
2022/09/25 04:06:43;;;;;;;;;6.50;6.50;;;;;;;;5100435;27;45431;-73
2022/09/25 04:09:08;;;;;;;;;7.50;6.25;;;;;;;;5100363;27;45386;-72
2022/09/25 04:11:34;;;;;;;;;8.75;6.50;;;;;;;;5099361;27;46601;-71
2022/09/25 04:14:00;;;;;;;;;7.25;5.75;;;;;;;;5100181;27;45264;-71
2022/09/25 04:16:26;;;;;;;;;8.25;7.25;;;;;;;;5098032;27;45526;-71
2022/09/25 04:18:51;;;;;;;;;8.25;6.00;;;;;;;;5100241;27;45326;-71
2022/09/25 04:21:17;;;;;;;;;6.50;5.00;;;;;;;;5099719;27;45552;-71
2022/09/25 04:24:46;;;;;;;;;8.33;6.67;;;;;;;;5099872;27;45373;-71
2022/09/25 04:26:27;;;;;;;;;10.33;8.33;;;;;;;;5099467;27;45671;-71
2022/09/25 04:28:52;;;;;;;;;10.00;7.00;;;;;;;;5100158;27;45293;-72
2022/09/25 04:31:17;;;;;;;;;11.00;8.00;;;;;;;;5098968;27;45586;-72
2022/09/25 04:33:46;;;;;;;;;6.00;6.00;;;;;;;;5099698;27;45381;-71
2022/09/25 04:36:12;;;;;;;;;7.33;7.00;;;;;;;;5099735;27;45493;-72
2022/09/25 04:38:37;;;;;;;;;8.33;7.00;;;;;;;;5099787;27;45411;-71
2022/09/25 04:41:03;;;;;;;;;8.00;6.00;;;;;;;;5099607;27;46497;-72
2022/09/25 04:43:28;;;;;;;;;8.00;6.00;;;;;;;;5099138;27;45240;-71
2022/09/25 04:45:54;;;;;;;;;3.75;3.75;;;;;;;;5099695;27;45318;-71
2022/09/25 04:48:19;;;;;;;;;7.75;6.00;;;;;;;;5113099;27;45407;-71
2022/09/25 04:50:48;;;;;;;;;15.33;13.00;;;;;;;;5119844;27;46358;-71
2022/09/25 04:53:13;;;;;;;;;11.25;8.75;;;;;;;;5120063;27;45293;-72
2022/09/25 04:55:38;;;;;;;;;6.50;6.00;;;;;;;;5120152;27;45514;-72
2022/09/25 04:58:04;;;;;;;;;7.50;7.00;;;;;;;;5119947;27;45448;-72
2022/09/25 05:00:30;;;;;;;;;7.25;5.75;;;;;;;;5119697;27;46469;-72
2022/09/25 05:02:55;;;;;;;;;9.25;6.00;;;;;;;;5119643;27;45481;-72
2022/09/25 05:05:20;;;;;;;;;7.25;6.25;;;;;;;;5112438;27;45344;-71
2022/09/25 05:07:53;;;;;;;;;8.00;7.00;;;;;;;;5099409;27;45287;-71
2022/09/25 05:10:19;;;;;;;;;9.25;7.50;;;;;;;;5098558;27;46575;-71
2022/09/25 05:12:44;;;;;;;;;25.00;23.33;;;;;;;;5098569;27;45176;-72
2022/09/25 05:15:10;;;;;;;;;12.33;10.67;;;;;;;;5099027;27;45312;-72
2022/09/25 05:17:35;;;;;;;;;8.50;8.25;;;;;;;;5099359;27;45390;-71
2022/09/25 05:20:02;;;;;;;;;7.50;7.25;;;;;;;;5098864;27;46442;-72
2022/09/25 05:22:27;;;;;;;;;31.00;28.33;;;;;;;;5115877;27;45407;-71
2022/09/25 05:24:52;;;;;;;;;9.00;8.75;;;;;;;;5119736;27;45268;-71
2022/09/25 05:27:17;;;;;;;;;6.50;6.50;;;;;;;;5119502;27;45308;-72
2022/09/25 05:29:43;;;;;;;;;9.25;9.00;;;;;;;;5119482;27;46403;-71
2022/09/25 05:32:08;;;;;;;;;10.00;8.00;;;;;;;;5119269;27;45305;-72
2022/09/25 05:34:34;;;;;;;;;10.50;5.00;;;;;;;;5119326;27;45427;-72
2022/09/25 05:36:59;;;;;;;;;12.00;9.00;;;;;;;;5117546;27;45326;-73
2022/09/25 05:39:24;;;;;;;;;7.00;7.00;;;;;;;;5119201;27;45829;-72
2022/09/25 05:41:49;;;;;;;;;7.00;7.00;;;;;;;;5119280;27;45232;-73
2022/09/25 05:44:15;;;;;;;;;7.00;7.00;;;;;;;;5119220;27;45241;-72
2022/09/25 05:46:41;;;;;;;;;11.50;7.25;;;;;;;;5119370;27;45335;-72
2022/09/25 05:49:06;;;;;;;;;11.00;9.67;;;;;;;;5119049;27;46402;-71
2022/09/25 05:51:32;;;;;;;;;10.00;10.00;;;;;;;;5118931;27;45410;-73
2022/09/25 05:53:59;;;;;;;;;16.33;10.00;;;;;;;;5119258;27;45362;-72
2022/09/25 05:56:24;;;;;;;;;11.50;9.00;;;;;;;;5102023;27;45646;-71
2022/09/25 05:58:49;;;;;;;;;10.67;10.67;;;;;;;;5098066;27;46112;-72
2022/09/25 06:01:15;;;;;;;;;12.00;9.00;;;;;;;;5098247;27;45371;-72
2022/09/25 06:03:40;;;;;;;;;13.00;10.00;;;;;;;;5098099;27;45236;-73
2022/09/25 06:06:06;;;;;;;;;12.00;10.67;;;;;;;;5098741;27;45202;-72
2022/09/25 06:08:31;;;;;;;;;14.00;9.67;;;;;;;;5098123;27;47295;-72
2022/09/25 06:10:57;;;;;;;;;14.67;14.00;;;;;;;;5097082;27;45414;-73
2022/09/25 06:13:23;;;;;;;;;9.00;9.00;;;;;;;;5097942;27;45303;-72
2022/09/25 06:15:51;;;;;;;;;13.67;11.67;;;;;;;;5098175;27;45400;-73
2022/09/25 06:18:17;;;;;;;;;17.00;13.67;;;;;;;;5097849;27;46636;-72
2022/09/25 06:20:42;;;;;;;;;10.67;9.00;;;;;;;;5097729;27;45485;-73
2022/09/25 06:23:08;;;;;;;;;13.25;9.75;;;;;;;;5097878;27;45379;-73
2022/09/25 06:25:33;;;;;;;;;13.67;8.67;;;;;;;;5098070;27;45556;-73
2022/09/25 06:27:59;;;;;;;;;10.50;9.50;;;;;;;;5097103;27;46696;-72
2022/09/25 06:30:27;;;;;;;;;17.00;14.00;;;;;;;;5097482;27;45370;-72
2022/09/25 06:32:56;;;;;;;;;9.75;8.25;;;;;;;;5097663;27;45292;-73
2022/09/25 06:35:21;;;;;;;;;11.50;10.00;;;;;;;;5097814;27;45444;-73
2022/09/25 06:37:46;;;;;;;;;9.25;9.25;;;;;;;;5097732;27;46300;-72
2022/09/25 06:40:12;;;;;;;;;13.67;10.00;;;;;;;;5097553;27;45238;-72
2022/09/25 06:42:37;;;;;;;;;8.33;8.33;;;;;;;;5097665;27;45307;-73
2022/09/25 06:45:03;;;;;;;;;10.50;8.00;;;;;;;;5097505;27;45227;-72
2022/09/25 06:47:28;;;;;;;;;8.25;8.00;;;;;;;;5097292;27;47528;-72
2022/09/25 06:49:53;;;;;;;;;10.00;8.25;;;;;;;;5101141;27;45486;-72
2022/09/25 06:52:19;;;;;;;;;10.75;8.25;;;;;;;;5101284;27;45307;-73
2022/09/25 06:54:44;;;;;;;;;11.00;9.25;;;;;;;;5101435;27;45360;-72
2022/09/25 06:57:11;;;;;;;;;8.67;8.67;;;;;;;;5101117;27;46431;-73
2022/09/25 06:59:36;;;;;;;;;8.50;8.50;;;;;;;;5100896;27;45294;-73
2022/09/25 07:04:45;;;;;;;;;7.25;6.00;;;;;;;;5101202;27;45244;-73
2022/09/25 07:07:12;;;;;;;;;9.75;8.00;;;;;;;;5100669;27;47146;-73
2022/09/25 07:09:37;;;;;;;;;9.50;9.00;;;;;;;;5101053;27;45353;-73
2022/09/25 07:12:02;;;;;;;;;10.00;8.00;;;;;;;;5100726;27;45210;-73
2022/09/25 07:14:28;;;;;;;;;11.25;9.75;;;;;;;;5100975;27;45399;-73
2022/09/25 07:16:53;;;;;;;;;11.33;10.00;;;;;;;;5100759;27;46752;-72
2022/09/25 07:19:18;;;;;;;;;9.25;7.50;;;;;;;;5100321;27;45517;-74
2022/09/25 07:21:43;;;;;;;;;9.25;6.50;;;;;;;;5100919;27;45405;-75
2022/09/25 07:24:09;;;;;;;;;8.75;7.25;;;;;;;;5100926;27;45509;-74
2022/09/25 07:26:34;;;;;;;;;20.00;20.00;;;;;;;;5100536;27;46376;-74
2022/09/25 07:29:02;;;;;;;;;7.00;6.75;;;;;;;;5099207;27;45359;-74
2022/09/25 07:31:31;;;;;;;;;3.50;3.50;;;;;;;;5100536;27;45362;-75
2022/09/25 07:33:58;;;;;;;;;7.50;5.50;;;;;;;;5100853;27;45592;-74
2022/09/25 07:36:24;;;;;;;;;5.50;5.50;;;;;;;;5099801;27;46041;-75
2022/09/25 07:38:49;;;;;;;;;6.50;3.00;;;;;;;;5100344;27;45373;-74
2022/09/25 07:41:15;;;;;;;;;6.00;4.00;;;;;;;;5100588;27;45347;-75
2022/09/25 07:43:43;;;;;;;;;8.50;7.75;;;;;;;;5100437;27;45438;-74
2022/09/25 07:46:08;;;;;;;;;6.00;3.00;;;;;;;;5098836;27;46742;-74
2022/09/25 07:48:33;;;;;;;;;2.00;2.00;;;;;;;;5100136;27;45227;-74
2022/09/25 07:51:00;;;;;;;;;3.75;3.75;;;;;;;;5100331;27;45294;-75
2022/09/25 07:53:25;;;;;;;;;4.50;4.50;;;;;;;;5099983;27;45326;-74
2022/09/25 07:55:50;;;;;;;;;5.25;3.25;;;;;;;;5100029;27;46402;-75
2022/09/25 07:58:18;;;;;;;;;5.00;4.00;;;;;;;;5099904;27;45253;-75
2022/09/25 08:00:43;;;;;;;;;3.25;3.25;;;;;;;;5099589;27;45448;-74
2022/09/25 08:03:10;;;;;;;;;4.25;3.00;;;;;;;;5099024;27;45283;-74
2022/09/25 08:05:35;;;;;;;;;3.50;2.50;;;;;;;;5099969;27;46184;-78
2022/09/25 08:08:00;;;;;;;;;2.50;2.50;;;;;;;;5099896;27;45401;-75
2022/09/25 08:10:26;;;;;;;;;3.50;2.50;;;;;;;;5099668;27;45317;-75
2022/09/25 08:12:51;;;;;;;;;2.25;2.25;;;;;;;;5120613;27;45428;-73
2022/09/25 08:15:16;;;;;;;;;5.50;5.50;;;;;;;;5120101;27;45329;-75
2022/09/25 08:17:41;;;;;;;;;2.50;1.00;;;;;;;;5120571;27;45359;-75
2022/09/25 08:20:07;;;;;;;;;2.50;1.50;;;;;;;;5120445;27;45346;-75
2022/09/25 08:22:33;;;;;;;;;1.00;0.75;;;;;;;;5120614;27;45453;-74
2022/09/25 08:25:01;;;;;;;;;0.75;0.75;;;;;;;;5120374;27;46524;-74
2022/09/25 08:27:26;;;;;;;;;0.50;0.50;;;;;;;;5108115;27;45372;-79
2022/09/25 08:29:51;;;;;;;;;2.00;2.00;;;;;;;;5098875;27;45189;-72
2022/09/25 08:32:16;;;;;;;;;1.00;1.00;;;;;;;;5099321;27;45294;-72
2022/09/25 08:34:41;;;;;;;;;2.00;1.00;;;;;;;;5099451;27;45415;-72
2022/09/25 08:37:07;;;;;;;;;3.25;1.00;;;;;;;;5099277;27;45561;-71
2022/09/25 08:39:33;;;;;;;;;2.00;2.00;;;;;;;;5098458;27;45520;-72
2022/09/25 08:41:59;;;;;;;;;3.25;3.25;;;;;;;;5099689;27;45379;-71
2022/09/25 08:44:27;;;;;;;;;4.25;2.75;;;;;;;;5102968;27;46301;-71
2022/09/25 08:49:57;;;;;;;;;10.50;5.00;;;;;;;;5120059;27;45303;-71
2022/09/25 08:52:22;;;;;;;;;2.25;1.75;;;;;;;;5119904;27;45404;-72
2022/09/25 08:54:49;;;;;;;;;3.00;2.75;;;;;;;;5119512;27;46842;-71
2022/09/25 08:57:20;;;;;;;;;3.00;3.00;;;;;;;;5119517;27;45396;-72
2022/09/25 08:59:50;;;;;;;;;3.00;3.00;;;;;;;;5119596;27;45336;-72
2022/09/25 09:02:17;;;;;;;;;5.25;2.00;;;;;;;;5118265;27;45227;-72
2022/09/25 09:04:48;;;;;;;;;2.25;1.00;;;;;;;;5119302;27;46167;-72
2022/09/25 09:07:16;;;;;;;;;1.75;1.75;;;;;;;;5119440;27;45397;-71
2022/09/25 09:09:51;;;;;;;;;2.50;2.00;;;;;;;;5119576;27;46005;-70
2022/09/25 09:12:23;;;;;;;;;2.75;1.00;;;;;;;;5118623;27;45603;-72
2022/09/25 09:14:50;;;;;;;;;3.00;1.25;;;;;;;;5119340;27;46388;-72
2022/09/25 09:17:21;;;;;;;;;3.50;0.00;;;;;;;;5113827;27;45602;-71
2022/09/25 09:19:52;;;;;;;;;0.00;0.00;;;;;;;;5098969;27;45318;-71
2022/09/25 09:22:21;;;;;;;;;2.00;0.50;;;;;;;;5099173;27;45431;-71
2022/09/25 09:25:02;;;;;;;;;1.00;1.00;;;;;;;;5098599;27;45549;-70
2022/09/25 09:27:51;;;;;;;;;5.25;1.00;;;;;;;;5098494;27;45491;-72
2022/09/25 09:30:16;;;;;;;;;1.00;1.00;;;;;;;;5098561;27;45449;-72
2022/09/25 09:32:42;;;;;;;;;0.75;0.75;;;;;;;;5098888;27;45410;-72
2022/09/25 09:35:14;;;;;;;;;1.75;1.00;;;;;;;;5109829;27;45381;-72
2022/09/25 09:37:54;;;;;;;;;3.00;0.50;;;;;;;;5119012;27;45393;-70
2022/09/25 09:40:22;;;;;;;;;0.50;0.00;;;;;;;;5119362;27;45308;-71
2022/09/25 09:42:55;;;;;;;;;0.00;0.00;;;;;;;;5119533;27;45441;-72
2022/09/25 09:45:27;;;;;;;;;15.00;12.33;;;;;;;;5118794;27;45437;-71
2022/09/25 09:48:15;;;;;;;;;0.00;0.00;;;;;;;;5118943;27;45446;-70
2022/09/25 09:50:49;;;;;;;;;1.00;1.00;;;;;;;;5115841;27;45314;-71
2022/09/25 09:53:23;;;;;;;;;2.00;0.50;;;;;;;;5101346;27;45295;-70
2022/09/25 09:55:51;;;;;;;;;0.00;0.00;;;;;;;;5098456;27;45527;-72
2022/09/25 09:58:43;;;;;;;;;0.50;0.00;;;;;;;;5098295;27;45323;-72
2022/09/25 10:01:09;;;;;;;;;0.00;0.00;;;;;;;;5081538;27;45599;-73
2022/09/25 10:03:36;;;;;;;;;1.50;1.50;;;;;;;;5098264;27;45549;-71
2022/09/25 10:06:07;;;;;;;;;0.00;0.00;;;;;;;;5097999;27;46584;-72
2022/09/25 10:08:33;;;;;;;;;1.75;0.00;;;;;;;;5097564;27;45298;-73
2022/09/25 10:10:59;;;;;;;;;6.50;2.00;;;;;;;;5097351;27;45509;-73
2022/09/25 10:13:31;;;;;;;;;6.33;4.67;;;;;;;;5097628;27;45154;-73
2022/09/25 10:16:03;;;;;;;;;1.00;1.00;;;;;;;;5097653;27;46408;-71
2022/09/25 10:18:33;;;;;;;;;2.25;1.00;;;;;;;;5097498;27;45551;-72
2022/09/25 10:21:02;;;;;;;;;1.50;0.00;;;;;;;;5097752;27;45441;-73
2022/09/25 10:23:34;;;;;;;;;0.00;0.00;;;;;;;;5097567;27;45234;-73
2022/09/25 10:25:59;;;;;;;;;0.25;0.25;;;;;;;;5117937;27;45271;-72
2022/09/25 10:28:33;;;;;;;;;0.00;0.00;;;;;;;;5118579;27;45281;-72
2022/09/25 10:30:58;;;;;;;;;1.50;0.00;;;;;;;;5118534;27;45306;-72
2022/09/25 10:33:25;;;;;;;;;3.25;0.75;;;;;;;;5117335;27;45678;-71
2022/09/25 10:35:53;;;;;;;;;2.75;1.00;;;;;;;;5118331;27;45452;-72
2022/09/25 10:38:18;;;;;;;;;1.00;1.00;;;;;;;;5118454;27;45474;-72
2022/09/25 10:40:46;;;;;;;;;2.00;1.00;;;;;;;;5106652;27;45596;-72
2022/09/25 10:43:24;;;;;;;;;1.00;0.00;;;;;;;;5097891;27;45316;-72
2022/09/25 10:46:03;;;;;;;;;1.75;1.75;;;;;;;;5096599;27;46465;-72
2022/09/25 10:51:17;;;;;;;;;1.00;1.00;;;;;;;;5097886;27;45363;-70
2022/09/25 10:53:42;;;;;;;;;1.00;1.00;;;;;;;;5097661;27;45740;-69
2022/09/25 10:56:11;;;;;;;;;1.00;1.00;;;;;;;;5097354;27;45414;-71
2022/09/25 10:58:42;;;;;;;;;1.50;1.00;;;;;;;;5097395;27;45320;-70
2022/09/25 11:01:12;;;;;;;;;1.00;1.00;;;;;;;;5096528;27;45490;-71
2022/09/25 11:03:39;;;;;;;;;1.75;1.00;;;;;;;;5097515;27;45414;-70
2022/09/25 11:06:16;;;;;;;;;1.25;1.25;;;;;;;;5096199;27;46297;-70
2022/09/25 11:08:41;;;;;;;;;1.00;1.00;;;;;;;;5104593;27;45345;-72
2022/09/25 11:11:08;;;;;;;;;1.25;0.00;;;;;;;;5097029;27;45403;-71
2022/09/25 11:13:35;;;;;;;;;1.00;0.00;;;;;;;;5096585;27;45302;-71
2022/09/25 11:16:02;;;;;;;;;15.33;11.67;;;;;;;;5096869;27;46389;-70
2022/09/25 11:18:35;;;;;;;;;2.00;0.00;;;;;;;;5096702;27;45388;-72
2022/09/25 11:21:02;;;;;;;;;0.75;0.75;;;;;;;;5097390;27;45300;-71
2022/09/25 11:23:27;;;;;;;;;0.00;0.00;;;;;;;;5097453;27;45311;-71
2022/09/25 11:25:52;;;;;;;;;3.00;0.00;;;;;;;;5097159;27;45355;-70
2022/09/25 11:28:29;;;;;;;;;1.50;1.50;;;;;;;;5097202;27;45178;-70
2022/09/25 11:31:02;;;;;;;;;1.00;1.00;;;;;;;;5097085;27;45661;-72
2022/09/25 11:33:37;;;;;;;;;0.00;0.00;;;;;;;;5097290;27;45252;-71
2022/09/25 11:36:07;;;;;;;;;0.00;0.00;;;;;;;;5113632;27;46411;-71
2022/09/25 11:41:31;;;;;;;;;2.00;0.00;;;;;;;;5121087;27;45365;-71
2022/09/25 11:44:15;;;;;;;;;0.00;0.00;;;;;;;;5121351;27;45586;-71
2022/09/25 11:46:40;;;;;;;;;16.33;12.67;;;;;;;;5119015;27;46441;-71
2022/09/25 11:49:23;;;;;;;;;26.33;25.00;;;;;;;;5120704;27;45349;-70
2022/09/25 11:51:49;;;;;;;;;14.00;14.00;;;;;;;;5120854;27;45366;-70
2022/09/25 11:54:14;;;;;;;;;19.00;19.00;;;;;;;;5121065;27;45582;-70
2022/09/25 11:56:44;;;;;;;;;48.00;39.67;;;;;;;;5120135;27;45946;-76
2022/09/25 11:59:39;;;;;;;;;15.33;15.00;;;;;;;;5115263;27;45421;-76
2022/09/25 12:02:22;;;;;;;;;1.00;0.50;;;;;;;;5036380;28;45405;-72
2022/09/25 12:04:57;;;;;;;;;3.25;3.00;;;;;;;;5037284;28;45372;-71
2022/09/25 12:07:42;;;;;;;;;3.75;3.75;;;;;;;;5036522;28;47222;-74
2022/09/25 12:10:43;;;;;;;;;9.00;7.00;;;;;;;;5025830;28;45444;-71
2022/09/25 12:13:23;;;;;;;;;0.00;0.00;;;;;;;;4977353;28;45410;-71
2022/09/25 12:15:48;;;;;;;;;10.33;6.67;;;;;;;;4975949;28;45744;-72
2022/09/25 12:18:14;;;;;;;;;3.50;3.50;;;;;;;;4976797;28;46419;-72
2022/09/25 12:20:42;;;;;;;;;23.00;19.67;;;;;;;;4977032;28;45400;-75
2022/09/25 12:23:07;;;;;;;;;1.00;1.00;;;;;;;;4977060;28;45535;-74
2022/09/25 12:25:51;;;;;;;;;2.00;0.00;;;;;;;;4977513;28;45513;-75
2022/09/25 12:28:25;;;;;;;;;0.00;0.00;;;;;;;;4977162;28;46202;-77
2022/09/25 12:30:59;;;;;;;;;0.00;0.00;;;;;;;;4976620;28;45541;-77
2022/09/25 12:33:37;;;;;;;;;1.00;1.00;;;;;;;;4975231;28;45458;-77
2022/09/25 12:36:09;;;;;;;;;1.00;1.00;;;;;;;;4976558;28;45763;-76
2022/09/25 12:38:34;;;;;;;;;0.75;0.75;;;;;;;;5007543;28;45415;-78
2022/09/25 12:41:03;;;;;;;;;1.25;0.50;;;;;;;;5036173;28;45464;-76
2022/09/25 12:43:43;;;;;;;;;0.00;0.00;;;;;;;;5036302;28;45425;-75
2022/09/25 12:46:25;;;;;;;;;1.75;1.75;;;;;;;;5041280;27;45425;-74
2022/09/25 12:49:29;;;;;;;;;4.00;4.00;;;;;;;;5098656;27;46094;-75
2022/09/25 12:51:58;;;;;;;;;0.00;0.00;;;;;;;;5075193;28;45442;-74
2022/09/25 12:54:27;;;;;;;;;2.00;0.25;;;;;;;;5076000;28;45413;-73
2022/09/25 12:56:52;;;;;;;;;10.75;8.75;;;;;;;;5076044;28;45400;-73
2022/09/25 12:59:25;;;;;;;;;6.00;5.50;;;;;;;;5075269;28;45517;-72
2022/09/25 13:01:52;;;;;;;;;9.00;8.00;;;;;;;;5075251;27;45348;-74
2022/09/25 13:04:35;;;;;;;;;3.00;3.00;;;;;;;;5074848;28;45384;-73
2022/09/25 13:07:15;;;;;;;;;51.00;42.33;;;;;;;;5075139;28;45350;-73
2022/09/25 13:09:48;;;;;;;;;1.00;1.00;;;;;;;;5075452;28;46215;-73
2022/09/25 13:12:14;;;;;;;;;1.75;1.00;;;;;;;;5075858;28;45514;-73
2022/09/25 13:14:51;;;;;;;;;0.25;0.25;;;;;;;;5076146;28;45383;-72
2022/09/25 13:17:16;;;;;;;;;0.75;0.75;;;;;;;;5075744;28;45432;-73
2022/09/25 13:19:41;;;;;;;;;0.00;0.00;;;;;;;;5074456;27;46433;-73
2022/09/25 13:22:19;;;;;;;;;0.00;0.00;;;;;;;;5081748;27;45409;-73
2022/09/25 13:24:48;;;;;;;;;4.00;3.00;;;;;;;;5108973;27;45326;-73
2022/09/25 13:27:19;;;;;;;;;5.00;4.00;;;;;;;;5119366;27;45374;-73
2022/09/25 13:29:50;;;;;;;;;2.00;0.00;;;;;;;;5118989;27;46276;-73
2022/09/25 13:32:21;;;;;;;;;3.50;3.50;;;;;;;;5117492;27;45301;-73
2022/09/25 13:34:50;;;;;;;;;0.75;0.00;;;;;;;;5119106;27;45385;-73
2022/09/25 13:37:15;;;;;;;;;1.25;1.25;;;;;;;;5119439;27;45386;-74
2022/09/25 13:42:41;;;;;;;;;0.00;0.00;;;;;;;;5117706;27;45440;-74
2022/09/25 13:45:09;;;;;;;;;10.33;7.33;;;;;;;;5119220;27;45759;-73
2022/09/25 13:47:36;;;;;;;;;2.00;0.50;;;;;;;;5119050;27;45449;-72
2022/09/25 13:50:07;;;;;;;;;5.00;4.00;;;;;;;;5100683;27;46333;-73
2022/09/25 13:52:39;;;;;;;;;7.00;6.00;;;;;;;;5097874;27;45541;-73
2022/09/25 13:55:13;;;;;;;;;3.25;3.25;;;;;;;;5098401;27;45468;-72
2022/09/25 13:57:54;;;;;;;;;2.00;2.00;;;;;;;;5097768;27;45383;-75
2022/09/25 14:00:20;;;;;;;;;3.00;1.00;;;;;;;;5097823;27;46051;-72
2022/09/25 14:02:46;;;;;;;;;1.25;1.00;;;;;;;;5097829;27;45726;-73
2022/09/25 14:05:20;;;;;;;;;5.33;4.67;;;;;;;;5097795;27;46145;-73
2022/09/25 14:07:48;;;;;;;;;9.67;6.00;;;;;;;;5097008;27;45747;-73
2022/09/25 14:10:16;;;;;;;;;1.75;1.25;;;;;;;;5109402;27;45357;-73
2022/09/25 14:12:43;;;;;;;;;1.00;1.00;;;;;;;;5096509;27;45574;-75
2022/09/25 14:15:21;;;;;;;;;6.00;6.00;;;;;;;;5097900;27;45455;-72
2022/09/25 14:17:48;;;;;;;;;4.00;2.25;;;;;;;;5096986;27;45216;-73
2022/09/25 14:20:26;;;;;;;;;4.67;3.67;;;;;;;;5101015;27;46280;-74
2022/09/25 14:22:52;;;;;;;;;4.50;1.00;;;;;;;;5105560;27;45508;-74
2022/09/25 14:25:31;;;;;;;;;2.75;2.00;;;;;;;;5109951;27;45405;-73
2022/09/25 14:27:57;;;;;;;;;0.25;0.25;;;;;;;;5111640;27;45435;-73
2022/09/25 14:30:27;;;;;;;;;1.25;1.25;;;;;;;;5123818;27;45751;-73
2022/09/25 14:33:05;;;;;;;;;3.00;3.00;;;;;;;;5100032;27;45406;-71
2022/09/25 14:35:34;;;;;;;;;1.00;1.00;;;;;;;;5103663;27;45772;-73
2022/09/25 14:38:22;;;;;;;;;6.00;4.00;;;;;;;;5097039;27;45473;-74
2022/09/25 14:41:03;;;;;;;;;6.00;2.50;;;;;;;;5074056;28;45525;-70
2022/09/25 14:43:34;;;;;;;;;3.00;2.00;;;;;;;;5074068;27;45515;-72
2022/09/25 14:46:01;;;;;;;;;2.00;0.00;;;;;;;;5073752;27;45501;-74
2022/09/25 14:48:32;;;;;;;;;1.25;1.25;;;;;;;;5090479;27;45557;-76
2022/09/25 14:50:59;;;;;;;;;0.00;0.00;;;;;;;;5102004;27;46191;-75
2022/09/25 14:53:34;;;;;;;;;6.50;5.75;;;;;;;;5093201;27;45517;-73
2022/09/25 14:56:04;;;;;;;;;46.33;36.00;;;;;;;;5083128;27;46066;-72
2022/09/25 14:58:31;;;;;;;;;18.33;17.00;;;;;;;;5074177;28;45436;-72
2022/09/25 15:01:00;;;;;;;;;42.67;37.33;;;;;;;;5088225;27;46836;-70
2022/09/25 15:03:29;;;;;;;;;24.00;21.67;;;;;;;;5092604;27;45617;-72
2022/09/25 15:05:57;;;;;;;;;8.00;6.00;;;;;;;;5103643;27;45391;-71
2022/09/25 15:08:30;;;;;;;;;15.00;14.33;;;;;;;;5079945;27;45567;-73
2022/09/25 15:11:07;;;;;;;;;11.00;8.33;;;;;;;;5095340;27;46746;-75
2022/09/25 15:13:32;;;;;;;;;3.00;3.00;;;;;;;;5100918;27;45824;-74